createdAt,value
2023-01-19T00:01:44.432Z,4.59
2023-01-19T00:04:12.354Z,4.58
2023-01-19T00:06:40.709Z,4.53
2023-01-19T00:09:08.524Z,4.49
2023-01-19T00:11:37.028Z,4.43
2023-01-19T00:14:05.509Z,4.42
2023-01-19T00:16:33.882Z,4.41
2023-01-19T00:19:01.826Z,4.52
2023-01-19T00:21:30.092Z,4.54
2023-01-19T00:23:57.961Z,4.57
2023-01-19T00:26:26.591Z,4.59
2023-01-19T00:28:54.343Z,4.65
2023-01-19T00:31:23.510Z,4.60
2023-01-19T00:33:53.038Z,4.43
2023-01-19T00:36:22.569Z,4.51
2023-01-19T00:38:50.975Z,4.58
2023-01-19T00:41:19.698Z,4.56
2023-01-19T00:43:47.452Z,4.55
2023-01-19T00:46:15.970Z,4.45
2023-01-19T00:48:44.039Z,4.33
2023-01-19T00:51:12.346Z,4.37
2023-01-19T00:53:40.170Z,4.21
2023-01-19T00:56:08.646Z,4.19
2023-01-19T00:58:36.545Z,4.29
2023-01-19T01:01:06.333Z,4.22
2023-01-19T01:03:34.599Z,4.31
2023-01-19T01:06:03.936Z,4.34
2023-01-19T01:08:32.299Z,4.32
2023-01-19T01:11:00.225Z,4.36
2023-01-19T01:13:28.941Z,4.31
2023-01-19T01:15:57.491Z,4.25
2023-01-19T01:18:26.557Z,4.34
2023-01-19T01:21:01.989Z,4.30
2023-01-19T01:23:30.377Z,4.14
2023-01-19T01:25:58.316Z,4.19
2023-01-19T01:28:27.409Z,4.10
2023-01-19T01:30:56.788Z,4.01
2023-01-19T01:33:40.718Z,4.09
2023-01-19T01:36:12.046Z,4.08
2023-01-19T01:38:41.807Z,4.14
2023-01-19T01:41:10.225Z,4.16
2023-01-19T01:43:44.769Z,4.17
2023-01-19T01:46:15.818Z,4.16
2023-01-19T01:48:50.395Z,4.17
2023-01-19T01:51:38.169Z,3.98
2023-01-19T01:54:09.561Z,4.02
2023-01-19T01:56:44.389Z,3.79
2023-01-19T01:59:26.244Z,3.74
2023-01-19T02:02:16.017Z,4.01
2023-01-19T02:04:58.956Z,3.94
2023-01-19T02:07:57.085Z,3.95
2023-01-19T02:10:44.267Z,4.02
2023-01-19T02:13:22.730Z,3.96
2023-01-19T02:15:56.504Z,3.91
2023-01-19T02:18:28.773Z,4.01
2023-01-19T02:21:00.643Z,3.94
2023-01-19T02:23:38.321Z,3.92
2023-01-19T02:26:09.981Z,3.88
2023-01-19T02:28:45.349Z,4.01
2023-01-19T02:31:15.441Z,4.05
2023-01-19T02:33:43.797Z,4.02
2023-01-19T02:36:15.551Z,4.03
2023-01-19T02:38:47.392Z,3.97
2023-01-19T02:41:20.647Z,3.92
2023-01-19T02:43:50.250Z,3.96
2023-01-19T02:46:18.731Z,3.97
2023-01-19T02:48:47.082Z,3.89
2023-01-19T02:51:21.635Z,3.91
2023-01-19T02:53:58.530Z,4.03
2023-01-19T02:56:50.905Z,4.07
2023-01-19T02:59:30.907Z,3.87
2023-01-19T03:02:29.844Z,3.94
2023-01-19T03:05:31.808Z,3.93
2023-01-19T03:08:34.835Z,3.91
2023-01-19T03:11:05.967Z,3.82
2023-01-19T03:13:46.263Z,3.91
2023-01-19T03:16:22.916Z,3.93
2023-01-19T03:18:59.050Z,3.70
2023-01-19T03:21:29.284Z,3.62
2023-01-19T03:24:03.373Z,3.75
2023-01-19T03:26:36.892Z,3.70
2023-01-19T03:29:07.671Z,3.77
2023-01-19T03:31:37.885Z,3.83
2023-01-19T03:34:11.072Z,3.90
2023-01-19T03:36:46.524Z,3.79
2023-01-19T03:39:21.945Z,3.90
2023-01-19T03:41:54.797Z,3.92
2023-01-19T03:44:26.426Z,3.89
2023-01-19T03:46:57.231Z,3.83
2023-01-19T03:49:26.214Z,3.73
2023-01-19T03:51:57.358Z,3.82
2023-01-19T03:54:26.103Z,3.80
2023-01-19T03:56:54.392Z,3.90
2023-01-19T03:59:22.739Z,3.77
2023-01-19T04:01:50.684Z,3.87
2023-01-19T04:04:19.067Z,3.86
2023-01-19T04:06:47.030Z,3.81
2023-01-19T04:09:15.464Z,3.83
2023-01-19T04:11:43.442Z,3.92
2023-01-19T04:14:11.734Z,3.89
2023-01-19T04:16:39.628Z,3.93
2023-01-19T04:19:07.794Z,3.81
2023-01-19T04:21:36.264Z,3.68
2023-01-19T04:24:04.897Z,3.80
2023-01-19T04:26:32.709Z,3.64
2023-01-19T04:29:01.088Z,3.67
2023-01-19T04:31:29.236Z,3.70
2023-01-19T04:33:57.875Z,3.59
2023-01-19T04:36:25.759Z,3.75
2023-01-19T04:38:54.536Z,3.74
2023-01-19T04:41:22.358Z,3.44
2023-01-19T04:43:52.160Z,3.44
2023-01-19T04:46:20.273Z,3.52
2023-01-19T04:48:48.517Z,3.70
2023-01-19T04:51:16.530Z,3.73
2023-01-19T04:53:44.844Z,3.87
2023-01-19T04:56:12.786Z,3.87
2023-01-19T04:58:43.779Z,3.81
2023-01-19T05:01:11.747Z,3.74
2023-01-19T05:03:41.321Z,3.88
2023-01-19T05:06:09.308Z,3.87
2023-01-19T05:08:37.804Z,3.90
2023-01-19T05:11:06.079Z,3.99
2023-01-19T05:13:35.737Z,4.02
2023-01-19T05:16:04.074Z,4.04
2023-01-19T05:18:36.334Z,4.02
2023-01-19T05:21:05.017Z,4.10
2023-01-19T05:23:33.919Z,4.21
2023-01-19T05:26:03.534Z,4.18
2023-01-19T05:28:33.642Z,4.28
2023-01-19T05:31:01.867Z,4.38
2023-01-19T05:33:30.654Z,4.37
2023-01-19T05:35:58.844Z,4.29
2023-01-19T05:38:35.314Z,4.36
2023-01-19T05:41:04.224Z,4.30
2023-01-19T05:43:32.411Z,4.34
2023-01-19T05:46:00.675Z,4.24
2023-01-19T05:48:28.857Z,4.24
2023-01-19T05:51:00.491Z,4.39
2023-01-19T05:53:29.209Z,4.45
2023-01-19T05:56:05.877Z,4.42
2023-01-19T05:58:35.735Z,4.50
2023-01-19T06:01:05.930Z,4.49
2023-01-19T06:03:35.904Z,4.47
2023-01-19T06:06:04.416Z,4.61
2023-01-19T06:08:33.183Z,4.61
2023-01-19T06:11:01.135Z,4.71
2023-01-19T06:13:29.372Z,4.68
2023-01-19T06:16:00.404Z,4.64
2023-01-19T06:18:29.619Z,4.60
2023-01-19T06:21:00.094Z,4.72
2023-01-19T06:23:31.479Z,4.71
2023-01-19T06:25:59.581Z,4.84
2023-01-19T06:28:28.491Z,4.79
2023-01-19T06:30:57.490Z,4.90
2023-01-19T06:33:27.856Z,4.91
2023-01-19T06:35:56.948Z,4.87
2023-01-19T06:38:25.529Z,4.80
2023-01-19T06:40:58.763Z,4.68
2023-01-19T06:43:27.635Z,4.46
2023-01-19T06:45:56.519Z,4.75
2023-01-19T06:48:25.199Z,4.97
2023-01-19T06:50:53.059Z,5.03
2023-01-19T06:53:22.697Z,5.11
2023-01-19T06:55:50.911Z,5.19
2023-01-19T06:58:19.835Z,5.19
2023-01-19T07:00:47.686Z,5.22
2023-01-19T07:03:20.874Z,5.09
2023-01-19T07:05:54.464Z,4.98
2023-01-19T07:08:23.751Z,5.19
2023-01-19T07:11:26.361Z,5.28
2023-01-19T07:13:41.505Z,5.43
2023-01-19T07:16:12.246Z,5.41
2023-01-19T07:18:41.584Z,5.33
2023-01-19T07:21:09.848Z,5.45
2023-01-19T07:23:38.908Z,5.27
2023-01-19T07:26:06.881Z,5.33
2023-01-19T07:28:35.429Z,5.56
2023-01-19T07:31:03.968Z,5.63
2023-01-19T07:33:32.264Z,5.68
2023-01-19T07:36:00.435Z,5.75
2023-01-19T07:38:28.729Z,5.86
2023-01-19T07:41:07.718Z,5.82
2023-01-19T07:43:36.204Z,5.96
2023-01-19T07:46:06.557Z,6.03
2023-01-19T07:48:35.448Z,6.07
2023-01-19T07:51:18.327Z,6.17
2023-01-19T07:53:46.849Z,6.07
2023-01-19T07:56:14.963Z,6.19
2023-01-19T07:58:43.384Z,6.21
2023-01-19T08:01:13.399Z,6.10
2023-01-19T08:03:42.744Z,6.28
2023-01-19T08:06:24.108Z,6.24
2023-01-19T08:08:53.207Z,6.34
2023-01-19T08:11:21.097Z,6.48
2023-01-19T08:13:49.545Z,6.50
2023-01-19T08:16:17.539Z,6.55
2023-01-19T08:18:46.443Z,6.61
2023-01-19T08:21:15.362Z,6.51
2023-01-19T08:23:43.953Z,6.60
2023-01-19T08:26:27.628Z,6.49
2023-01-19T08:28:58.140Z,6.49
2023-01-19T08:31:26.939Z,6.57
2023-01-19T08:33:55.383Z,6.61
2023-01-19T08:36:25.439Z,6.62
2023-01-19T08:38:53.830Z,6.61
2023-01-19T08:41:22.603Z,6.59
2023-01-19T08:43:51.137Z,6.71
2023-01-19T08:46:21.566Z,6.68
2023-01-19T08:48:50.972Z,6.67
2023-01-19T08:51:19.795Z,6.86
2023-01-19T08:53:48.061Z,6.90
2023-01-19T08:56:16.337Z,6.92
2023-01-19T08:58:51.200Z,6.94
2023-01-19T09:01:24.515Z,6.96
2023-01-19T09:03:53.738Z,7.00
2023-01-19T09:06:21.704Z,6.92
2023-01-19T09:08:50.250Z,7.21
2023-01-19T09:11:19.009Z,7.30
2023-01-19T09:13:47.229Z,7.37
2023-01-19T09:16:16.220Z,7.28
2023-01-19T09:18:46.236Z,7.39
2023-01-19T09:21:15.337Z,7.55
2023-01-19T09:23:43.769Z,7.70
2023-01-19T09:26:12.119Z,7.86
2023-01-19T09:28:40.331Z,7.90
2023-01-19T09:31:09.459Z,8.07
2023-01-19T09:33:37.997Z,7.91
2023-01-19T09:36:06.449Z,8.03
2023-01-19T09:38:34.926Z,8.01
2023-01-19T09:41:04.585Z,8.10
2023-01-19T09:43:43.315Z,8.05
2023-01-19T09:46:14.566Z,8.04
2023-01-19T09:48:53.314Z,8.04
2023-01-19T09:51:28.789Z,8.15
2023-01-19T09:54:21.128Z,8.26
2023-01-19T09:56:52.419Z,8.31
2023-01-19T09:59:28.681Z,8.36
2023-01-19T10:02:20.894Z,8.32
2023-01-19T10:05:04.584Z,8.44
2023-01-19T10:07:55.680Z,8.60
2023-01-19T10:10:29.075Z,8.58
2023-01-19T10:13:26.118Z,8.54
2023-01-19T10:16:31.869Z,8.66
2023-01-19T10:19:23.855Z,8.65
2023-01-19T10:21:56.130Z,8.62
2023-01-19T10:24:38.946Z,8.69
2023-01-19T10:27:18.617Z,8.73
2023-01-19T10:29:47.053Z,8.85
2023-01-19T10:32:22.492Z,8.61
2023-01-19T10:34:51.115Z,8.62
2023-01-19T10:37:25.246Z,8.87
2023-01-19T10:39:56.249Z,8.78
2023-01-19T10:42:29.590Z,8.78
2023-01-19T10:44:58.946Z,8.81
2023-01-19T10:47:39.978Z,8.78
2023-01-19T10:50:23.606Z,8.77
2023-01-19T10:52:54.842Z,8.77
2023-01-19T10:55:32.185Z,8.77
2023-01-19T10:58:00.803Z,8.76
2023-01-19T11:00:38.192Z,8.61
2023-01-19T11:03:29.496Z,8.68
2023-01-19T11:06:19.406Z,8.72
2023-01-19T11:08:51.647Z,8.78
2023-01-19T11:11:21.568Z,8.72
2023-01-19T11:14:11.510Z,8.83
2023-01-19T11:16:40.380Z,8.93
2023-01-19T11:19:20.286Z,8.94
2023-01-19T11:21:48.338Z,8.99
2023-01-19T11:24:17.176Z,8.84
2023-01-19T11:26:48.528Z,9.03
2023-01-19T11:29:23.833Z,9.11
2023-01-19T11:31:53.685Z,9.19
2023-01-19T11:34:40.108Z,9.15
2023-01-19T11:37:31.919Z,9.10
2023-01-19T11:40:04.470Z,9.04
2023-01-19T11:42:34.688Z,9.10
2023-01-19T11:45:23.526Z,9.11
2023-01-19T11:47:52.924Z,9.21
2023-01-19T11:50:32.269Z,9.12
2023-01-19T11:53:07.813Z,8.99
2023-01-19T11:56:01.104Z,9.07
2023-01-19T11:58:30.658Z,9.10
2023-01-19T12:01:14.748Z,8.96
2023-01-19T12:04:06.128Z,9.03
2023-01-19T12:06:48.067Z,9.12
2023-01-19T12:09:24.649Z,9.05
2023-01-19T12:11:56.131Z,9.10
2023-01-19T12:14:32.297Z,9.14
2023-01-19T12:17:04.695Z,9.13
2023-01-19T12:19:56.515Z,9.23
2023-01-19T12:22:28.889Z,9.30
2023-01-19T12:25:06.381Z,9.22
2023-01-19T12:27:34.604Z,9.27
2023-01-19T12:30:06.429Z,9.24
2023-01-19T12:32:37.275Z,9.24
2023-01-19T12:35:05.826Z,9.07
2023-01-19T12:37:41.958Z,8.99
2023-01-19T12:40:37.825Z,9.03
2023-01-19T12:43:06.460Z,9.13
2023-01-19T12:45:36.596Z,9.21
2023-01-19T12:48:05.724Z,9.17
2023-01-19T12:50:38.125Z,9.25
2023-01-19T12:53:19.383Z,9.11
2023-01-19T12:56:00.317Z,9.12
2023-01-19T12:58:29.207Z,9.10
2023-01-19T13:01:21.406Z,9.10
2023-01-19T13:04:09.746Z,9.05
2023-01-19T13:06:49.941Z,9.07
2023-01-19T13:09:33.406Z,9.06
2023-01-19T13:12:19.614Z,9.03
2023-01-19T13:14:48.481Z,9.00
2023-01-19T13:17:32.178Z,8.95
2023-01-19T13:20:25.074Z,8.80
2023-01-19T13:23:09.773Z,8.82
2023-01-19T13:25:43.945Z,8.65
2023-01-19T13:28:16.639Z,8.75
2023-01-19T13:30:58.480Z,8.73
2023-01-19T13:33:30.489Z,8.74
2023-01-19T13:35:59.465Z,8.71
2023-01-19T13:38:29.016Z,8.59
2023-01-19T13:41:02.121Z,8.61
2023-01-19T13:43:38.097Z,8.47
2023-01-19T13:46:07.017Z,8.29
2023-01-19T13:48:34.980Z,8.39
2023-01-19T13:51:17.741Z,8.40
2023-01-19T13:53:59.135Z,8.38
2023-01-19T13:56:29.959Z,8.45
2023-01-19T13:59:12.129Z,8.49
2023-01-19T14:01:44.166Z,8.56
2023-01-19T14:04:29.037Z,8.56
2023-01-19T14:07:01.313Z,8.38
2023-01-19T14:09:30.743Z,8.33
2023-01-19T14:12:14.399Z,8.20
2023-01-19T14:14:49.890Z,8.35
2023-01-19T14:17:27.528Z,8.29
2023-01-19T14:19:57.586Z,8.38
2023-01-19T14:22:44.693Z,8.35
2023-01-19T14:25:28.282Z,8.25
2023-01-19T14:28:29.275Z,8.23
2023-01-19T14:31:17.465Z,8.26
2023-01-19T14:33:51.412Z,8.15
2023-01-19T14:36:34.437Z,8.14
2023-01-19T14:39:04.237Z,8.02
2023-01-19T14:41:53.277Z,8.01
2023-01-19T14:44:34.288Z,7.91
2023-01-19T14:47:03.618Z,7.94
2023-01-19T14:49:38.720Z,7.92
2023-01-19T14:52:23.682Z,7.87
2023-01-19T14:54:54.873Z,7.85
2023-01-19T14:57:22.993Z,7.80
2023-01-19T14:59:51.276Z,7.83
2023-01-19T15:02:19.797Z,7.85
2023-01-19T15:04:48.497Z,7.83
2023-01-19T15:07:20.301Z,7.79
2023-01-19T15:09:48.874Z,7.84
2023-01-19T15:12:18.842Z,7.90
2023-01-19T15:14:47.251Z,7.91
2023-01-19T15:17:25.910Z,7.81
2023-01-19T15:19:56.599Z,7.79
2023-01-19T15:22:30.418Z,7.74
2023-01-19T15:25:01.887Z,7.69
2023-01-19T15:27:30.847Z,7.50
2023-01-19T15:30:00.012Z,7.46
2023-01-19T15:32:28.104Z,7.63
2023-01-19T15:34:57.717Z,7.66
2023-01-19T15:37:25.747Z,7.74
2023-01-19T15:39:53.989Z,7.75
2023-01-19T15:42:21.927Z,7.75
2023-01-19T15:44:50.949Z,7.76
2023-01-19T15:47:18.884Z,7.68
2023-01-19T15:49:47.116Z,7.60
2023-01-19T15:52:17.027Z,7.67
2023-01-19T15:54:45.418Z,7.73
2023-01-19T15:57:13.253Z,7.72
2023-01-19T15:59:41.469Z,7.67
2023-01-19T16:02:10.127Z,7.57
2023-01-19T16:04:38.674Z,7.63
2023-01-19T16:07:06.516Z,7.65
2023-01-19T16:09:34.867Z,7.65
2023-01-19T16:12:02.717Z,7.53
2023-01-19T16:14:31.067Z,7.50
2023-01-19T16:17:00.381Z,7.55
2023-01-19T16:19:29.757Z,7.54
2023-01-19T16:21:57.856Z,7.53
2023-01-19T16:24:26.667Z,7.53
2023-01-19T16:26:54.832Z,7.45
2023-01-19T16:29:23.093Z,7.32
2023-01-19T16:31:52.095Z,7.23
2023-01-19T16:34:20.316Z,7.23
2023-01-19T16:36:49.289Z,7.35
2023-01-19T16:39:17.959Z,7.22
2023-01-19T16:41:46.297Z,7.18
2023-01-19T16:44:16.227Z,7.25
2023-01-19T16:46:46.249Z,7.27
2023-01-19T16:49:17.882Z,7.29
2023-01-19T16:51:46.309Z,7.24
2023-01-19T16:54:16.857Z,7.28
2023-01-19T16:56:44.857Z,7.26
2023-01-19T16:59:15.329Z,7.11
2023-01-19T17:01:45.525Z,7.30
2023-01-19T17:04:15.099Z,7.26
2023-01-19T17:06:43.419Z,7.21
2023-01-19T17:09:11.661Z,7.04
2023-01-19T17:11:43.012Z,7.12
2023-01-19T17:14:20.552Z,6.86
2023-01-19T17:16:49.646Z,6.83
2023-01-19T17:19:19.778Z,6.78
2023-01-19T17:21:50.697Z,6.73
2023-01-19T17:24:19.610Z,6.34
2023-01-19T17:26:49.031Z,6.59
2023-01-19T17:29:17.898Z,6.62
2023-01-19T17:31:47.038Z,6.50
2023-01-19T17:34:15.429Z,6.53
2023-01-19T17:36:43.573Z,6.56
2023-01-19T17:39:15.123Z,6.51
2023-01-19T17:41:43.354Z,6.62
2023-01-19T17:44:11.637Z,6.70
2023-01-19T17:46:40.082Z,6.53
2023-01-19T17:49:09.138Z,6.66
2023-01-19T17:51:37.432Z,6.63
2023-01-19T17:54:05.985Z,6.64
2023-01-19T17:56:37.881Z,6.70
2023-01-19T17:59:08.275Z,6.58
2023-01-19T18:01:40.262Z,6.52
2023-01-19T18:04:09.696Z,6.61
2023-01-19T18:06:38.752Z,6.25
2023-01-19T18:09:07.777Z,6.13
2023-01-19T18:11:36.089Z,6.19
2023-01-19T18:14:05.637Z,6.30
2023-01-19T18:16:33.623Z,6.32
2023-01-19T18:19:01.975Z,6.35
2023-01-19T18:21:30.707Z,6.37
2023-01-19T18:24:02.524Z,6.30
2023-01-19T18:26:31.832Z,6.34
2023-01-19T18:29:00.999Z,6.41
2023-01-19T18:31:29.818Z,6.39
2023-01-19T18:33:58.061Z,6.35
2023-01-19T18:36:26.121Z,6.37
2023-01-19T18:38:54.528Z,6.30
2023-01-19T18:41:22.586Z,6.42
2023-01-19T18:43:52.228Z,6.37
2023-01-19T18:46:21.520Z,6.35
2023-01-19T18:48:49.916Z,6.27
2023-01-19T18:51:19.453Z,6.42
2023-01-19T18:53:48.057Z,6.37
2023-01-19T18:56:16.641Z,6.26
2023-01-19T18:58:45.113Z,6.33
2023-01-19T19:01:36.841Z,6.34
2023-01-19T19:04:05.391Z,6.34
2023-01-19T19:06:33.514Z,6.31
2023-01-19T19:09:01.754Z,6.24
2023-01-19T19:11:29.652Z,6.04
2023-01-19T19:14:00.909Z,6.17
2023-01-19T19:16:30.262Z,6.21
2023-01-19T19:18:59.764Z,6.25
2023-01-19T19:21:28.066Z,6.37
2023-01-19T19:23:58.002Z,6.27
2023-01-19T19:26:28.392Z,6.31
2023-01-19T19:28:57.331Z,6.20
2023-01-19T19:31:27.851Z,6.24
2023-01-19T19:33:57.591Z,6.23
2023-01-19T19:36:27.296Z,5.97
2023-01-19T19:38:56.102Z,5.91
2023-01-19T19:41:29.064Z,6.05
2023-01-19T19:43:58.312Z,5.95
2023-01-19T19:46:27.342Z,5.89
2023-01-19T19:48:55.945Z,6.06
2023-01-19T19:51:29.796Z,6.06
2023-01-19T19:54:00.982Z,6.18
2023-01-19T19:56:31.169Z,6.20
2023-01-19T19:58:59.899Z,5.94
2023-01-19T20:01:32.888Z,5.94
2023-01-19T20:04:11.089Z,6.08
2023-01-19T20:06:42.736Z,6.12
2023-01-19T20:09:13.131Z,6.09
2023-01-19T20:11:43.221Z,6.13
2023-01-19T20:14:14.061Z,6.18
2023-01-19T20:16:42.759Z,6.15
2023-01-19T20:19:11.386Z,6.18
2023-01-19T20:21:43.966Z,6.16
2023-01-19T20:24:31.243Z,6.10
2023-01-19T20:26:59.274Z,5.95
2023-01-19T20:29:27.697Z,5.93
2023-01-19T20:31:56.694Z,5.95
2023-01-19T20:34:30.446Z,6.02
2023-01-19T20:37:00.933Z,5.98
2023-01-19T20:39:33.532Z,6.00
2023-01-19T20:42:02.385Z,5.96
2023-01-19T20:44:31.338Z,5.99
2023-01-19T20:47:02.306Z,6.00
2023-01-19T20:49:31.125Z,5.74
2023-01-19T20:51:59.578Z,5.84
2023-01-19T20:54:30.598Z,5.57
2023-01-19T20:57:00.359Z,5.61
2023-01-19T20:59:29.068Z,5.69
2023-01-19T21:01:57.383Z,5.72
2023-01-19T21:04:26.442Z,5.78
2023-01-19T21:06:54.676Z,5.84
2023-01-19T21:09:24.201Z,5.68
2023-01-19T21:11:52.758Z,5.68
2023-01-19T21:14:21.206Z,5.49
2023-01-19T21:16:49.433Z,5.52
2023-01-19T21:19:19.688Z,5.55
2023-01-19T21:21:47.820Z,5.56
2023-01-19T21:24:17.253Z,5.50
2023-01-19T21:26:46.558Z,5.62
2023-01-19T21:29:15.024Z,5.59
2023-01-19T21:31:43.655Z,5.53
2023-01-19T21:34:14.531Z,5.55
2023-01-19T21:36:45.006Z,5.61
2023-01-19T21:39:14.858Z,5.73
2023-01-19T21:41:45.434Z,5.70
2023-01-19T21:44:15.257Z,5.87
2023-01-19T21:46:43.739Z,5.89
2023-01-19T21:49:19.231Z,5.87
2023-01-19T21:51:48.504Z,5.88
2023-01-19T21:54:19.609Z,5.88
2023-01-19T21:56:49.935Z,6.06
2023-01-19T21:59:20.346Z,6.23
2023-01-19T22:01:48.893Z,6.32
2023-01-19T22:04:17.307Z,6.38
2023-01-19T22:06:45.604Z,6.11
2023-01-19T22:09:15.083Z,6.23
2023-01-19T22:11:43.426Z,6.30
2023-01-19T22:14:11.811Z,6.45
2023-01-19T22:16:40.536Z,6.51
2023-01-19T22:19:14.733Z,6.44
2023-01-19T22:21:44.351Z,6.53
2023-01-19T22:24:13.280Z,6.46
2023-01-19T22:26:42.470Z,6.53
2023-01-19T22:29:12.893Z,6.52
2023-01-19T22:31:41.254Z,6.59
2023-01-19T22:34:11.203Z,6.68
2023-01-19T22:36:40.226Z,6.72
2023-01-19T22:39:10.820Z,6.81
2023-01-19T22:41:48.378Z,6.83
2023-01-19T22:44:21.378Z,6.74
2023-01-19T22:46:52.597Z,6.86
2023-01-19T22:49:21.896Z,6.80
2023-01-19T22:51:50.006Z,6.81
2023-01-19T22:54:18.193Z,6.78
2023-01-19T22:56:46.374Z,6.66
2023-01-19T22:59:14.583Z,6.80
2023-01-19T23:01:44.336Z,6.81
2023-01-19T23:04:15.264Z,6.70
2023-01-19T23:06:43.741Z,6.76
2023-01-19T23:09:13.924Z,6.46
2023-01-19T23:11:51.629Z,6.10
2023-01-19T23:14:23.070Z,6.01
2023-01-19T23:16:51.643Z,6.09
2023-01-19T23:19:20.077Z,5.94
2023-01-19T23:21:52.851Z,5.96
2023-01-19T23:24:21.322Z,5.90
2023-01-19T23:26:50.373Z,6.14
2023-01-19T23:29:19.968Z,6.26
2023-01-19T23:31:49.502Z,6.32
2023-01-19T23:34:17.852Z,6.43
2023-01-19T23:36:46.137Z,6.43
2023-01-19T23:39:20.227Z,6.51
2023-01-19T23:41:49.631Z,6.44
2023-01-19T23:44:18.574Z,6.21
2023-01-19T23:46:46.708Z,6.27
2023-01-19T23:49:15.041Z,6.42
2023-01-19T23:51:43.262Z,6.45
2023-01-19T23:54:12.500Z,6.46
2023-01-19T23:56:40.852Z,6.52
2023-01-19T23:59:11.527Z,6.57
